createdAt,value
2022-09-12T04:20:09.958Z,53.51
2022-09-12T04:25:04.160Z,52.71
2022-09-12T04:29:56.491Z,52.72
2022-09-12T04:34:48.891Z,52.39
2022-09-12T04:39:41.460Z,51.63
2022-09-12T04:44:33.632Z,51.85
2022-09-12T04:49:26.248Z,51.73
2022-09-12T04:54:18.784Z,51.74
2022-09-12T04:59:11.158Z,50.19
2022-09-12T05:04:03.380Z,51.96
2022-09-12T05:08:55.585Z,50.24
2022-09-12T05:13:48.328Z,50.33
2022-09-12T05:18:40.963Z,51.39
2022-09-12T05:23:33.594Z,51.16
2022-09-12T05:28:26.217Z,50.06
2022-09-12T05:33:22.035Z,49.43
2022-09-12T05:38:11.213Z,48.84
2022-09-12T05:43:03.410Z,49.29
2022-09-12T05:47:55.831Z,49.03
2022-09-12T05:52:48.259Z,48.78
2022-09-12T05:57:40.526Z,48.86
2022-09-12T06:02:33.031Z,48.27
2022-09-12T06:07:25.215Z,49.27
2022-09-12T06:12:17.556Z,48.97
2022-09-12T06:17:10.034Z,49.23
2022-09-12T06:22:02.439Z,47.88
2022-09-12T06:26:54.678Z,48.2
2022-09-12T06:31:47.329Z,48.42
2022-09-12T06:36:40.007Z,48.39
2022-09-12T06:41:32.340Z,48.41
2022-09-12T06:46:24.683Z,48.5
2022-09-12T06:51:17.239Z,48.57
2022-09-12T06:56:09.522Z,48.8
2022-09-12T07:01:01.929Z,48.66
2022-09-12T07:05:54.446Z,48.85
2022-09-12T07:10:46.677Z,49.33
2022-09-12T07:15:39.393Z,49.77
2022-09-12T07:20:31.872Z,48.63
2022-09-12T07:25:24.296Z,48.36
2022-09-12T07:30:16.790Z,48.43
2022-09-12T07:35:09.437Z,47.98
2022-09-12T07:40:01.483Z,48.12
2022-09-12T07:44:53.965Z,48.32
2022-09-12T07:49:46.407Z,48.02
2022-09-12T07:54:38.923Z,47.97
2022-09-12T07:59:51.220Z,49.34
2022-09-12T08:04:24.423Z,48.4
2022-09-12T08:09:17.229Z,48.18
2022-09-12T08:14:09.993Z,48.18
2022-09-12T08:19:02.221Z,48.12
2022-09-12T08:23:54.472Z,48.23
2022-09-12T08:28:47.120Z,48.35
2022-09-12T08:33:39.626Z,48.49
2022-09-12T08:38:32.011Z,48.89
2022-09-12T08:43:24.279Z,48.57
2022-09-12T08:48:16.162Z,48.91
2022-09-12T08:53:08.546Z,48.85
2022-09-12T08:58:01.150Z,48.91
2022-09-12T09:02:53.834Z,49.08
2022-09-12T09:07:46.204Z,49.07
2022-09-12T09:12:38.939Z,49
2022-09-12T09:17:31.113Z,49.06
2022-09-12T09:22:23.357Z,48.86
2022-09-12T09:27:37.247Z,48.85
2022-09-12T09:32:08.762Z,48.78
2022-09-12T09:37:01.188Z,48.9
2022-09-12T09:41:53.790Z,48.81
2022-09-12T09:46:46.395Z,48.79
2022-09-12T09:51:39.334Z,48.71
2022-09-12T09:56:31.780Z,48.79
2022-09-12T10:01:24.216Z,48.84
2022-09-12T10:06:16.671Z,49.48
2022-09-12T10:11:09.199Z,49.36
2022-09-12T10:16:01.854Z,49.39
2022-09-12T10:20:54.715Z,49.22
2022-09-12T10:25:47.581Z,49.15
2022-09-12T10:30:40.349Z,49.21
2022-09-12T10:35:32.788Z,49.26
2022-09-12T10:40:25.532Z,49.24
2022-09-12T10:45:18.670Z,49.49
2022-09-12T10:50:20.881Z,49.22
2022-09-12T10:55:03.952Z,49.25
2022-09-12T10:59:56.613Z,49.16
2022-09-12T11:04:49.210Z,49.3
2022-09-12T11:09:41.579Z,48.88
2022-09-12T11:14:33.911Z,48.5
2022-09-12T11:24:14.635Z,48.2
2022-09-12T11:29:08.125Z,49.3
2022-09-12T11:34:00.728Z,47.69
2022-09-12T11:38:53.421Z,47.72
2022-09-12T11:43:46.161Z,47.91
2022-09-12T11:48:38.739Z,48.4
2022-09-12T11:53:31.205Z,48.39
2022-09-12T11:58:23.494Z,47.79
2022-09-12T12:03:15.683Z,47.89
2022-09-12T12:08:08.193Z,47.84
2022-09-12T12:13:00.753Z,47.94
2022-09-12T12:17:53.301Z,47.84
2022-09-12T12:22:46.056Z,47.79
2022-09-12T12:27:38.499Z,47.93
2022-09-12T12:32:33.214Z,48.06
2022-09-12T12:37:25.603Z,48.15
2022-09-12T12:42:19.550Z,48.14
2022-09-12T12:47:10.251Z,48.1
2022-09-12T12:52:03.069Z,48.1
2022-09-12T12:56:55.580Z,48.16
2022-09-12T13:01:51.592Z,48.37
2022-09-12T13:06:40.724Z,48.41
2022-09-12T13:11:33.481Z,48.56
2022-09-12T13:16:26.127Z,49.04
2022-09-12T13:21:18.778Z,49.18
2022-09-12T13:26:11.303Z,49.47
2022-09-12T13:31:04.034Z,49.51
2022-09-12T13:35:56.457Z,49.59
2022-09-12T13:40:48.986Z,49.57
2022-09-12T13:45:41.634Z,49.55
2022-09-12T13:50:34.069Z,49.6
2022-09-12T13:55:27.099Z,49.62
2022-09-12T14:00:19.982Z,49.62
2022-09-12T14:05:12.528Z,49.6
2022-09-12T14:10:05.003Z,49.68
2022-09-12T14:14:57.572Z,49.64
2022-09-12T14:19:50.386Z,49.66
2022-09-12T14:24:43.075Z,49.73
2022-09-12T14:29:35.630Z,49.47
2022-09-12T14:34:30.340Z,49.57
2022-09-12T14:39:22.720Z,49.7
2022-09-12T14:44:15.316Z,49.72
2022-09-12T14:49:07.785Z,49.73
2022-09-12T14:54:00.213Z,49.7
2022-09-12T14:58:52.889Z,49.67
2022-09-12T15:03:49.380Z,49.64
2022-09-12T15:08:38.203Z,49.67
2022-09-12T15:13:30.685Z,49.7
2022-09-12T15:18:23.249Z,49.7
2022-09-12T15:23:15.785Z,49.71
2022-09-12T15:28:08.450Z,49.55
2022-09-12T15:33:01.026Z,49.56
2022-09-12T15:37:53.568Z,49.44
2022-09-12T15:42:46.258Z,49.47
2022-09-12T15:47:38.555Z,49.55
2022-09-12T15:52:31.353Z,49.74
2022-09-12T15:57:23.876Z,49.58
2022-09-12T16:02:16.413Z,49.35
2022-09-12T16:07:09.130Z,48.54
2022-09-12T16:12:01.380Z,47.57
2022-09-12T16:16:53.946Z,47.57
2022-09-12T16:21:46.303Z,46.96
2022-09-12T16:26:38.986Z,46.94
2022-09-12T16:31:31.388Z,47.15
2022-09-12T16:36:23.938Z,46.67
2022-09-12T16:41:16.942Z,46.24
2022-09-12T16:46:09.095Z,46.83
2022-09-12T16:51:01.543Z,47.18
2022-09-12T16:55:53.844Z,47.5
2022-09-12T17:00:47.146Z,47.66
2022-09-12T17:05:39.655Z,47.72
2022-09-12T17:10:32.116Z,47.63
2022-09-12T17:15:24.870Z,47.72
2022-09-12T17:20:17.533Z,47.85
2022-09-12T17:25:09.793Z,47.82
2022-09-12T17:30:02.304Z,47.81
2022-09-12T17:34:54.982Z,47.78
2022-09-12T17:39:47.517Z,47.74
2022-09-12T17:44:40.878Z,47.97
2022-09-12T17:49:32.363Z,47.99
2022-09-12T17:54:24.959Z,48
2022-09-12T17:59:17.902Z,48.16
2022-09-12T18:04:10.492Z,48.28
2022-09-12T18:09:03.354Z,48.33
2022-09-12T18:13:55.448Z,48.4
2022-09-12T18:18:48.007Z,48.47
2022-09-12T18:23:40.720Z,48.42
2022-09-12T18:28:32.615Z,48.5
2022-09-12T18:33:25.369Z,48.44
2022-09-12T18:38:17.869Z,48.51
2022-09-12T18:43:10.406Z,48.46
2022-09-12T18:48:02.945Z,48.38
2022-09-12T18:52:59.066Z,48.47
2022-09-12T18:57:48.161Z,48.4
2022-09-12T19:02:40.564Z,48.49
2022-09-12T19:07:33.044Z,48.55
2022-09-12T19:12:25.069Z,48.51
2022-09-12T19:17:17.709Z,48.59
2022-09-12T19:22:10.110Z,48.71
2022-09-12T19:27:02.543Z,48.61
2022-09-12T19:31:55.213Z,48.8
2022-09-12T19:36:48.096Z,48.68
2022-09-12T19:41:40.735Z,48.49
2022-09-12T19:46:33.241Z,48.6
2022-09-12T19:51:25.896Z,48.79
2022-09-12T19:56:18.328Z,48.88
2022-09-12T20:01:10.767Z,48.86
2022-09-12T20:06:03.373Z,48.84
2022-09-12T20:10:57.113Z,48.79
2022-09-12T20:15:48.736Z,48.87
2022-09-12T20:20:41.230Z,48.8
2022-09-12T20:25:33.851Z,48.86
2022-09-12T20:30:26.379Z,48.89
2022-09-12T20:35:18.716Z,48.88
2022-09-12T20:40:11.259Z,48.89
2022-09-12T20:45:03.549Z,48.9
2022-09-12T20:49:56.014Z,48.83
2022-09-12T20:54:48.521Z,48.91
2022-09-12T20:59:40.947Z,48.94
2022-09-12T21:04:33.179Z,49.16
2022-09-12T21:09:25.534Z,49.09
2022-09-12T21:14:17.938Z,49
2022-09-12T21:19:10.226Z,49.17
2022-09-12T21:24:02.858Z,49.12
2022-09-12T21:28:55.441Z,49.07
2022-09-12T21:33:48.266Z,49.16
2022-09-12T21:38:40.559Z,49.15
2022-09-12T21:43:33.048Z,49.05
2022-09-12T21:48:25.624Z,48.99
2022-09-12T21:53:18.301Z,48.95
2022-09-12T21:58:10.767Z,48.88
2022-09-12T22:03:03.466Z,48.91
2022-09-12T22:07:55.743Z,49
2022-09-12T22:12:48.017Z,48.91
2022-09-12T22:17:40.844Z,48.88
2022-09-12T22:22:33.466Z,48.85
2022-09-12T22:27:26.182Z,48.86
2022-09-12T22:32:18.592Z,48.87
2022-09-12T22:37:11.040Z,48.85
2022-09-12T22:42:03.587Z,48.84
2022-09-12T22:46:56.423Z,48.86
2022-09-12T22:51:48.826Z,48.87
2022-09-12T22:56:41.505Z,48.82
2022-09-12T23:01:33.992Z,48.89
2022-09-12T23:06:26.456Z,48.87
2022-09-12T23:11:19.009Z,48.83
2022-09-12T23:16:11.418Z,48.83
2022-09-12T23:21:03.931Z,48.9
2022-09-12T23:25:56.515Z,48.89
2022-09-12T23:30:49.217Z,48.82
2022-09-12T23:35:41.613Z,48.84
2022-09-12T23:40:34.178Z,48.81
2022-09-12T23:45:26.725Z,48.82
2022-09-12T23:50:19.491Z,48.83
2022-09-12T23:55:11.457Z,48.83
